Toyomasa Maru — JJ3927 — position and weather

sailwx.info

Track history (hours):
 
Tides and Currents Weather Stations Pressure Air Temp Water Temp Dewpoint Dewpoint Depression Visibility Wind Speed Wind Dir Waves Ship Positions

Toyomasa Maru

Last reported at 2017-Jan-22 02:33 UTC. Time now 2017-Jan-23 14:53 UTC.
Position N 34°10' E 134°58'.

Length 101 m; draft 6.4 m.

Type: Tanker. MMSI: 431300401.

Date/timePositionNaut miles runAvg speedWind from/ knotsBaromVisibWave heightAir tempDewpointWater temp
2017-Jan-22 02:33N 34°10' E 134°58'2613.0
2017-Jan-22 00:33N 34°35' E 135°03'12312.2
2017-Jan-21 14:27N 34°04' E 132°39'27 0.6
2017-Jan-19 17:11N 33°43' E 132°20'812.0
2017-Jan-19 16:32N 33°47' E 132°28'1412.1
2017-Jan-19 15:24N 33°56' E 132°40'  
2017-Jan-13 12:26N 34°22' E 135°01'1112.2
2017-Jan-13 11:33N 34°28' E 135°11'1110.9
2017-Jan-13 10:33N 34°32' E 135°24'1 0.1
2017-Jan-12 22:26N 34°32' E 135°25'4 4.7
2017-Jan-12 21:33N 34°33' E 135°20'0 0.1
2017-Jan-12 20:30N 34°33' E 135°20'0 0.0
2017-Jan-12 19:30N 34°33' E 135°20'0 0.0
2017-Jan-12 18:30N 34°33' E 135°20'0 0.0
2017-Jan-12 17:30N 34°33' E 135°20'0 0.0
2017-Jan-12 16:30N 34°33' E 135°20'0 0.0
2017-Jan-12 15:24N 34°33' E 135°20'0 0.0
2017-Jan-12 14:30N 34°33' E 135°20'0 0.0
2017-Jan-12 13:24N 34°33' E 135°20'0 0.0
2017-Jan-12 12:30N 34°33' E 135°20'0 0.0
2017-Jan-12 11:30N 34°33' E 135°20'0 0.0
2017-Jan-12 10:30N 34°33' E 135°20'0 0.0
2017-Jan-12 09:30N 34°33' E 135°20'0 0.1
2017-Jan-12 08:31N 34°33' E 135°20'8 8.8
2017-Jan-12 07:33N 34°36' E 135°10'3 3.0
2017-Jan-12 06:33N 34°39' E 135°08'0 0.0
2017-Jan-12 05:31N 34°39' E 135°08'  
Track history (hours):
 
Tides and Currents Weather Stations Pressure Air Temp Water Temp Dewpoint Dewpoint Depression Visibility Wind Speed Wind Dir Waves Ship Positions

Toyomasa Maru

Last reported at 2017-Jan-22 02:33 UTC. Time now 2017-Jan-23 14:53 UTC.
Position N 34°10' E 134°58'.

Length 101 m; draft 6.4 m.

Type: Tanker. MMSI: 431300401.

Date/timePositionNaut miles runAvg speedWind from/ knotsBaromVisibWave heightAir tempDewpointWater temp
2017-Jan-22 02:33N 34°10' E 134°58'2613.0
2017-Jan-22 00:33N 34°35' E 135°03'12312.2
2017-Jan-21 14:27N 34°04' E 132°39'27 0.6
2017-Jan-19 17:11N 33°43' E 132°20'812.0
2017-Jan-19 16:32N 33°47' E 132°28'1412.1
2017-Jan-19 15:24N 33°56' E 132°40'  
2017-Jan-13 12:26N 34°22' E 135°01'1112.2
2017-Jan-13 11:33N 34°28' E 135°11'1110.9
2017-Jan-13 10:33N 34°32' E 135°24'1 0.1
2017-Jan-12 22:26N 34°32' E 135°25'4 4.7
2017-Jan-12 21:33N 34°33' E 135°20'0 0.1
2017-Jan-12 20:30N 34°33' E 135°20'0 0.0
2017-Jan-12 19:30N 34°33' E 135°20'0 0.0
2017-Jan-12 18:30N 34°33' E 135°20'0 0.0
2017-Jan-12 17:30N 34°33' E 135°20'0 0.0
2017-Jan-12 16:30N 34°33' E 135°20'0 0.0
2017-Jan-12 15:24N 34°33' E 135°20'0 0.0
2017-Jan-12 14:30N 34°33' E 135°20'0 0.0
2017-Jan-12 13:24N 34°33' E 135°20'0 0.0
2017-Jan-12 12:30N 34°33' E 135°20'0 0.0
2017-Jan-12 11:30N 34°33' E 135°20'0 0.0
2017-Jan-12 10:30N 34°33' E 135°20'0 0.0
2017-Jan-12 09:30N 34°33' E 135°20'0 0.1
2017-Jan-12 08:31N 34°33' E 135°20'8 8.8
2017-Jan-12 07:33N 34°36' E 135°10'3 3.0
2017-Jan-12 06:33N 34°39' E 135°08'0 0.0
2017-Jan-12 05:31N 34°39' E 135°08'  

Dump ship's entire track history